createdAt,value
2022-11-02T00:01:50.298Z,1.10
2022-11-02T00:04:17.981Z,1.55
2022-11-02T00:06:45.534Z,1.17
2022-11-02T00:09:14.429Z,1.23
2022-11-02T00:11:42.096Z,1.10
2022-11-02T00:14:09.774Z,1.85
2022-11-02T00:16:40.204Z,2.45
2022-11-02T00:19:09.457Z,1.63
2022-11-02T00:21:39.513Z,1.98
2022-11-02T00:24:08.649Z,1.65
2022-11-02T00:26:38.618Z,1.77
2022-11-02T00:29:06.762Z,1.60
2022-11-02T00:31:34.432Z,1.88
2022-11-02T00:34:01.769Z,1.98
2022-11-02T00:36:29.603Z,2.65
2022-11-02T00:38:57.166Z,2.67
2022-11-02T00:41:24.653Z,2.80
2022-11-02T00:43:52.263Z,1.83
2022-11-02T00:46:20.312Z,1.73
2022-11-02T00:48:48.050Z,1.50
2022-11-02T00:51:15.555Z,2.13
2022-11-02T00:53:46.702Z,1.65
2022-11-02T00:56:14.346Z,1.88
2022-11-02T00:58:43.157Z,2.17
2022-11-02T01:01:12.011Z,2.88
2022-11-02T01:03:39.483Z,1.88
2022-11-02T01:06:15.649Z,1.55
2022-11-02T01:08:43.423Z,2.00
2022-11-02T01:11:23.977Z,1.70
2022-11-02T01:13:52.419Z,1.27
2022-11-02T01:16:20.337Z,1.80
2022-11-02T01:18:51.081Z,1.77
2022-11-02T01:21:19.296Z,1.80
2022-11-02T01:23:47.129Z,2.03
2022-11-02T01:26:14.679Z,1.90
2022-11-02T01:28:42.108Z,2.33
2022-11-02T01:31:11.475Z,1.65
2022-11-02T01:33:43.254Z,2.35
2022-11-02T01:36:10.957Z,2.40
2022-11-02T01:38:38.509Z,1.67
2022-11-02T01:41:06.973Z,1.63
2022-11-02T01:43:38.626Z,1.90
2022-11-02T01:46:30.852Z,2.40
2022-11-02T01:49:18.203Z,1.63
2022-11-02T01:51:49.056Z,2.28
2022-11-02T01:54:22.915Z,2.00
2022-11-02T01:56:57.093Z,1.40
2022-11-02T01:59:39.588Z,1.20
2022-11-02T02:02:14.261Z,1.58
2022-11-02T02:04:42.694Z,1.60
2022-11-02T02:07:12.452Z,1.60
2022-11-02T02:09:39.783Z,1.20
2022-11-02T02:12:08.539Z,2.45
2022-11-02T02:14:36.322Z,1.20
2022-11-02T02:17:23.339Z,1.48
2022-11-02T02:19:56.339Z,1.08
2022-11-02T02:22:56.318Z,1.20
2022-11-02T02:25:26.923Z,1.40
2022-11-02T02:28:28.289Z,1.58
2022-11-02T02:31:40.215Z,0.80
2022-11-02T02:34:17.559Z,1.40
2022-11-02T02:36:58.369Z,1.30
2022-11-02T02:39:38.615Z,1.17
2022-11-02T02:42:11.538Z,1.23
2022-11-02T02:47:22.078Z,1.42
2022-11-02T02:49:53.887Z,1.38
2022-11-02T02:52:28.806Z,1.30
2022-11-02T02:54:59.622Z,1.23
2022-11-02T02:57:30.881Z,1.70
2022-11-02T02:59:58.087Z,1.33
2022-11-02T03:02:34.032Z,1.35
2022-11-02T03:05:01.369Z,1.80
2022-11-02T03:07:34.216Z,1.00
2022-11-02T03:10:14.177Z,1.25
2022-11-02T03:13:10.338Z,2.58
2022-11-02T03:15:51.229Z,1.20
2022-11-02T03:18:38.662Z,1.63
2022-11-02T03:21:34.434Z,1.27
2022-11-02T03:24:19.981Z,1.30
2022-11-02T03:26:58.997Z,2.15
2022-11-02T03:29:37.061Z,1.20
2022-11-02T03:32:11.365Z,1.23
2022-11-02T03:34:47.954Z,1.63
2022-11-02T03:37:18.766Z,1.52
2022-11-02T03:39:52.897Z,1.92
2022-11-02T03:42:28.028Z,1.30
2022-11-02T03:45:04.317Z,1.30
2022-11-02T03:47:34.080Z,2.13
2022-11-02T03:50:09.575Z,1.48
2022-11-02T03:52:41.485Z,1.40
2022-11-02T03:55:13.959Z,1.35
2022-11-02T03:57:48.236Z,1.92
2022-11-02T04:00:22.032Z,1.75
2022-11-02T04:03:00.079Z,1.70
2022-11-02T04:08:22.923Z,2.30
2022-11-02T04:11:16.688Z,2.80
2022-11-02T04:14:04.780Z,2.88
2022-11-02T04:16:36.541Z,2.40
2022-11-02T04:19:28.567Z,2.23
2022-11-02T04:22:18.841Z,3.67
2022-11-02T04:25:08.773Z,2.20
2022-11-02T04:27:37.078Z,1.70
2022-11-02T04:30:04.894Z,2.15
2022-11-02T04:33:01.129Z,1.80
2022-11-02T04:35:32.843Z,2.00
2022-11-02T04:38:19.958Z,2.17
2022-11-02T04:40:48.081Z,2.13
2022-11-02T04:43:15.526Z,2.30
2022-11-02T04:45:42.961Z,2.28
2022-11-02T04:48:10.542Z,2.63
2022-11-02T04:50:38.862Z,1.95
2022-11-02T04:53:07.648Z,2.58
2022-11-02T04:55:35.925Z,2.50
2022-11-02T04:58:04.649Z,2.65
2022-11-02T05:00:33.259Z,2.20
2022-11-02T05:03:00.743Z,2.13
2022-11-02T05:05:27.836Z,2.88
2022-11-02T05:07:58.515Z,2.60
2022-11-02T05:10:26.189Z,1.98
2022-11-02T05:12:58.838Z,3.00
2022-11-02T05:15:29.863Z,2.75
2022-11-02T05:17:58.351Z,2.10
2022-11-02T05:20:28.146Z,3.05
2022-11-02T05:22:55.649Z,2.88
2022-11-02T05:25:24.776Z,2.22
2022-11-02T05:27:52.709Z,2.55
2022-11-02T05:30:20.715Z,2.47
2022-11-02T05:32:48.561Z,2.30
2022-11-02T05:35:16.441Z,4.65
2022-11-02T05:37:48.420Z,3.47
2022-11-02T05:40:16.133Z,3.15
2022-11-02T05:42:44.050Z,2.63
2022-11-02T05:45:11.163Z,2.95
2022-11-02T05:47:38.596Z,2.70
2022-11-02T05:50:06.054Z,1.83
2022-11-02T05:52:34.838Z,2.65
2022-11-02T05:55:02.261Z,2.58
2022-11-02T05:57:30.786Z,3.08
2022-11-02T05:59:57.897Z,2.05
2022-11-02T06:02:25.592Z,3.15
2022-11-02T06:04:53.213Z,2.28
2022-11-02T06:07:20.766Z,3.50
2022-11-02T06:09:48.125Z,2.10
2022-11-02T06:12:15.400Z,2.88
2022-11-02T06:14:42.599Z,2.72
2022-11-02T06:17:09.721Z,2.00
2022-11-02T06:19:37.286Z,2.53
2022-11-02T06:22:04.677Z,2.83
2022-11-02T06:24:31.911Z,2.30
2022-11-02T06:26:59.307Z,1.10
2022-11-02T06:29:26.789Z,1.27
2022-11-02T06:31:53.903Z,1.00
2022-11-02T06:34:21.070Z,1.65
2022-11-02T06:36:48.173Z,1.40
2022-11-02T06:39:15.708Z,1.27
2022-11-02T06:41:42.821Z,2.13
2022-11-02T06:44:10.260Z,2.10
2022-11-02T06:46:37.543Z,2.90
2022-11-02T06:49:04.667Z,2.63
2022-11-02T06:51:31.887Z,2.20
2022-11-02T06:54:01.257Z,2.22
2022-11-02T06:56:32.002Z,2.17
2022-11-02T06:58:59.103Z,1.80
2022-11-02T07:01:26.408Z,2.22
2022-11-02T07:03:53.666Z,2.10
2022-11-02T07:06:20.994Z,2.17
2022-11-02T07:08:48.479Z,2.80
2022-11-02T07:11:16.349Z,2.85
2022-11-02T07:13:44.086Z,2.92
2022-11-02T07:16:11.633Z,2.65
2022-11-02T07:18:38.762Z,2.17
2022-11-02T07:21:06.232Z,2.75
2022-11-02T07:23:33.770Z,3.45
2022-11-02T07:26:05.194Z,3.03
2022-11-02T07:28:32.706Z,2.17
2022-11-02T07:31:00.161Z,2.53
2022-11-02T07:33:27.327Z,2.58
2022-11-02T07:35:54.540Z,1.92
2022-11-02T07:38:21.768Z,1.17
2022-11-02T07:40:52.364Z,1.85
2022-11-02T07:43:19.706Z,1.33
2022-11-02T07:46:03.463Z,1.50
2022-11-02T07:48:31.129Z,1.70
2022-11-02T07:50:59.777Z,1.75
2022-11-02T07:53:29.968Z,1.52
2022-11-02T07:55:57.160Z,1.60
2022-11-02T07:58:24.585Z,2.45
2022-11-02T08:00:55.857Z,2.33
2022-11-02T08:03:26.963Z,2.50
2022-11-02T08:05:54.843Z,2.88
2022-11-02T08:08:24.926Z,2.85
2022-11-02T08:10:52.887Z,4.03
2022-11-02T08:13:26.423Z,3.60
2022-11-02T08:15:56.749Z,3.17
2022-11-02T08:18:27.053Z,2.60
2022-11-02T08:20:59.099Z,2.20
2022-11-02T08:23:27.331Z,2.20
2022-11-02T08:25:58.742Z,2.55
2022-11-02T08:28:29.104Z,2.70
2022-11-02T08:31:00.079Z,2.35
2022-11-02T08:33:27.619Z,2.05
2022-11-02T08:35:55.120Z,2.15
2022-11-02T08:38:22.879Z,2.25
2022-11-02T08:40:50.046Z,2.22
2022-11-02T08:43:17.658Z,2.17
2022-11-02T08:46:14.470Z,2.42
2022-11-02T08:48:33.382Z,3.15
2022-11-02T08:51:03.399Z,2.58
2022-11-02T08:53:31.073Z,2.92
2022-11-02T08:55:59.341Z,3.25
2022-11-02T08:58:27.027Z,2.92
2022-11-02T09:00:54.901Z,3.40
2022-11-02T09:03:26.961Z,3.63
2022-11-02T09:06:02.637Z,2.80
2022-11-02T09:08:30.280Z,2.50
2022-11-02T09:11:03.013Z,2.58
2022-11-02T09:13:30.656Z,2.53
2022-11-02T09:15:59.176Z,3.00
2022-11-02T09:18:29.298Z,2.80
2022-11-02T09:21:08.164Z,3.25
2022-11-02T09:23:35.463Z,3.47
2022-11-02T09:26:05.970Z,3.22
2022-11-02T09:28:33.321Z,2.50
2022-11-02T09:31:00.462Z,2.30
2022-11-02T09:33:30.125Z,3.13
2022-11-02T09:36:02.767Z,2.95
2022-11-02T09:38:31.171Z,2.25
2022-11-02T09:41:35.753Z,2.65
2022-11-02T09:44:09.606Z,2.80
2022-11-02T09:46:45.218Z,3.20
2022-11-02T09:49:17.772Z,3.20
2022-11-02T09:51:57.055Z,2.58
2022-11-02T09:54:30.267Z,2.67
2022-11-02T09:57:42.770Z,2.50
2022-11-02T10:00:14.946Z,3.20
2022-11-02T10:02:57.043Z,2.10
2022-11-02T10:05:34.126Z,2.30
2022-11-02T10:08:23.479Z,2.92
2022-11-02T10:11:06.917Z,1.90
2022-11-02T10:13:42.232Z,2.67
2022-11-02T10:16:23.736Z,2.22
2022-11-02T10:18:54.011Z,3.30
2022-11-02T10:21:26.578Z,2.53
2022-11-02T10:23:56.763Z,2.72
2022-11-02T10:26:34.468Z,2.40
2022-11-02T10:29:51.572Z,2.05
2022-11-02T10:32:19.190Z,2.60
2022-11-02T10:34:58.770Z,2.45
2022-11-02T10:37:56.280Z,2.70
2022-11-02T10:40:57.916Z,2.45
2022-11-02T10:43:52.250Z,3.10
2022-11-02T10:46:44.243Z,2.83
2022-11-02T10:49:47.350Z,2.80
2022-11-02T10:52:17.121Z,2.25
2022-11-02T10:54:44.562Z,2.05
2022-11-02T10:57:18.969Z,2.13
2022-11-02T11:00:24.883Z,2.47
2022-11-02T11:03:09.252Z,2.63
2022-11-02T11:05:53.245Z,2.30
2022-11-02T11:08:43.872Z,2.30
2022-11-02T11:11:28.168Z,2.00
2022-11-02T11:20:04.402Z,1.65
2022-11-02T11:22:41.721Z,1.83
2022-11-02T11:25:28.593Z,3.13
2022-11-02T11:28:00.119Z,2.33
2022-11-02T11:30:58.998Z,2.15
2022-11-02T11:33:23.191Z,2.03
2022-11-02T11:35:52.510Z,2.17
2022-11-02T11:38:26.851Z,2.38
2022-11-02T11:40:57.307Z,2.22
2022-11-02T11:43:32.420Z,2.08
2022-11-02T11:46:07.080Z,2.13
2022-11-02T11:48:59.728Z,1.58
2022-11-02T11:51:38.258Z,2.38
2022-11-02T11:54:26.393Z,2.78
2022-11-02T11:57:30.220Z,2.40
2022-11-02T11:59:59.842Z,2.83
2022-11-02T12:02:43.916Z,2.38
2022-11-02T12:05:20.991Z,1.80
2022-11-02T12:08:23.110Z,2.30
2022-11-02T12:11:05.743Z,2.17
2022-11-02T12:13:57.244Z,2.78
2022-11-02T12:16:45.708Z,3.22
2022-11-02T12:19:34.459Z,2.55
2022-11-02T12:22:16.109Z,2.63
2022-11-02T12:25:22.029Z,2.28
2022-11-02T12:27:54.478Z,3.33
2022-11-02T12:33:25.077Z,2.72
2022-11-02T12:36:29.796Z,2.30
2022-11-02T12:39:23.626Z,2.95
2022-11-02T12:42:03.739Z,2.22
2022-11-02T12:44:54.230Z,2.15
2022-11-02T12:47:32.447Z,3.55
2022-11-02T12:54:14.843Z,2.78
2022-11-02T13:00:58.595Z,2.50
2022-11-02T13:04:15.088Z,3.10
2022-11-02T13:14:00.867Z,2.40
2022-11-02T13:16:53.649Z,2.33
2022-11-02T13:19:40.781Z,2.92
2022-11-02T13:22:14.506Z,2.22
2022-11-02T13:24:54.270Z,2.72
2022-11-02T13:27:40.493Z,2.60
2022-11-02T13:30:20.113Z,2.55
2022-11-02T13:33:10.772Z,2.38
2022-11-02T13:35:43.630Z,2.35
2022-11-02T13:38:26.170Z,1.83
2022-11-02T13:41:17.501Z,2.85
2022-11-02T13:43:47.949Z,2.40
2022-11-02T13:46:26.468Z,2.63
2022-11-02T13:49:05.308Z,2.60
2022-11-02T13:51:46.837Z,3.05
2022-11-02T13:54:36.305Z,2.50
2022-11-02T13:57:03.808Z,2.22
2022-11-02T13:59:43.330Z,2.53
2022-11-02T14:02:18.639Z,2.38
2022-11-02T14:04:48.659Z,2.60
2022-11-02T14:07:21.683Z,2.13
2022-11-02T14:09:49.575Z,2.05
2022-11-02T14:12:23.070Z,2.13
2022-11-02T14:15:14.402Z,2.75
2022-11-02T14:17:53.739Z,2.20
2022-11-02T14:20:46.478Z,2.83
2022-11-02T14:23:18.610Z,1.73
2022-11-02T14:25:46.012Z,2.05
2022-11-02T14:28:22.650Z,2.05
2022-11-02T14:31:17.865Z,3.38
2022-11-02T14:34:14.367Z,2.60
2022-11-02T14:36:56.596Z,2.03
2022-11-02T14:39:55.814Z,2.17
2022-11-02T14:42:56.156Z,2.67
2022-11-02T14:45:34.004Z,2.10
2022-11-02T14:48:09.702Z,2.50
2022-11-02T14:50:37.289Z,2.40
2022-11-02T14:53:09.207Z,1.88
2022-11-02T14:55:40.181Z,2.03
2022-11-02T14:58:18.934Z,2.08
2022-11-02T15:00:49.347Z,2.00
2022-11-02T15:03:25.803Z,2.30
2022-11-02T15:06:20.429Z,2.30
2022-11-02T15:08:59.546Z,2.45
2022-11-02T15:11:56.928Z,2.88
2022-11-02T15:14:56.099Z,2.10
2022-11-02T15:17:24.641Z,2.20
2022-11-02T15:19:58.080Z,1.58
2022-11-02T15:22:48.804Z,2.80
2022-11-02T15:25:21.660Z,2.22
2022-11-02T15:30:22.601Z,2.40
2022-11-02T15:33:01.666Z,1.67
2022-11-02T15:35:38.063Z,2.53
2022-11-02T15:38:30.513Z,3.13
2022-11-02T15:41:21.022Z,2.90
2022-11-02T15:44:06.628Z,3.42
2022-11-02T15:46:42.388Z,3.13
2022-11-02T15:49:37.719Z,2.22
2022-11-02T15:52:42.840Z,2.83
2022-11-02T15:55:24.431Z,2.20
2022-11-02T15:58:07.653Z,2.70
2022-11-02T16:00:37.213Z,2.65
2022-11-02T16:03:10.213Z,2.28
2022-11-02T16:05:52.388Z,2.60
2022-11-02T16:08:34.699Z,3.35
2022-11-02T16:11:19.325Z,2.23
2022-11-02T16:14:11.761Z,2.30
2022-11-02T16:16:49.414Z,2.22
2022-11-02T16:19:25.239Z,2.13
2022-11-02T16:21:55.957Z,2.38
2022-11-02T16:24:25.826Z,2.65
2022-11-02T16:27:08.915Z,2.85
2022-11-02T16:29:36.325Z,2.85
2022-11-02T16:32:07.302Z,2.85
2022-11-02T16:34:39.632Z,3.38
2022-11-02T16:37:10.473Z,2.67
2022-11-02T16:39:42.339Z,2.92
2022-11-02T16:42:25.702Z,2.65
2022-11-02T16:45:05.053Z,2.53
2022-11-02T16:47:47.271Z,2.47
2022-11-02T16:50:22.020Z,2.63
2022-11-02T16:53:06.231Z,3.38
2022-11-02T16:55:45.460Z,2.55
2022-11-02T16:58:21.581Z,2.60
2022-11-02T17:00:58.050Z,2.50
2022-11-02T17:03:33.892Z,2.45
2022-11-02T17:06:15.727Z,2.90
2022-11-02T17:08:52.031Z,2.53
2022-11-02T17:11:20.145Z,2.70
2022-11-02T17:14:00.175Z,3.47
2022-11-02T17:16:33.636Z,3.08
2022-11-02T17:19:04.522Z,3.75
2022-11-02T17:21:31.799Z,3.75
2022-11-02T17:23:59.824Z,3.05
2022-11-02T17:26:28.820Z,3.45
2022-11-02T17:29:01.317Z,3.70
2022-11-02T17:31:33.645Z,2.80
2022-11-02T17:34:08.532Z,3.42
2022-11-02T17:37:07.930Z,3.25
2022-11-02T17:39:40.415Z,3.20
2022-11-02T17:42:32.494Z,2.42
2022-11-02T17:45:25.062Z,2.72
2022-11-02T17:47:55.608Z,2.72
2022-11-02T17:50:30.479Z,2.47
2022-11-02T17:53:10.036Z,2.72
2022-11-02T17:55:53.182Z,5.28
2022-11-02T17:58:36.396Z,3.35
2022-11-02T18:01:16.661Z,3.30
2022-11-02T18:04:04.174Z,3.75
2022-11-02T18:06:48.491Z,2.38
2022-11-02T18:10:07.057Z,3.17
2022-11-02T18:12:59.383Z,3.28
2022-11-02T18:15:36.004Z,2.78
2022-11-02T18:18:17.689Z,4.90
2022-11-02T18:20:48.172Z,2.40
2022-11-02T18:23:22.470Z,3.07
2022-11-02T18:26:17.163Z,3.08
2022-11-02T18:28:51.421Z,3.83
2022-11-02T18:31:30.876Z,3.25
2022-11-02T18:34:20.793Z,2.97
2022-11-02T18:36:53.090Z,2.97
2022-11-02T18:39:22.709Z,3.58
2022-11-02T18:41:56.421Z,3.03
2022-11-02T18:44:56.527Z,3.08
2022-11-02T18:47:26.678Z,4.40
2022-11-02T18:49:54.371Z,4.00
2022-11-02T18:52:32.106Z,3.63
2022-11-02T18:55:03.921Z,5.32
2022-11-02T18:57:34.296Z,3.58
2022-11-02T19:00:03.074Z,3.10
2022-11-02T19:02:31.532Z,3.47
2022-11-02T19:04:59.113Z,3.85
2022-11-02T19:07:44.866Z,2.90
2022-11-02T19:10:12.302Z,3.28
2022-11-02T19:12:39.778Z,3.28
2022-11-02T19:15:07.477Z,3.72
2022-11-02T19:17:35.110Z,3.63
2022-11-02T19:20:02.573Z,3.72
2022-11-02T19:22:29.818Z,3.60
2022-11-02T19:24:57.193Z,3.67
2022-11-02T19:27:25.880Z,3.28
2022-11-02T19:29:53.554Z,3.60
2022-11-02T19:32:20.759Z,3.45
2022-11-02T19:34:47.906Z,2.35
2022-11-02T19:37:15.104Z,2.67
2022-11-02T19:39:42.520Z,4.60
2022-11-02T19:42:09.728Z,3.47
2022-11-02T19:44:42.310Z,4.05
2022-11-02T19:47:10.771Z,4.03
2022-11-02T19:49:37.997Z,3.17
2022-11-02T19:52:05.163Z,3.20
2022-11-02T19:54:36.917Z,2.83
2022-11-02T19:57:08.179Z,3.20
2022-11-02T19:59:37.984Z,3.65
2022-11-02T20:02:06.658Z,3.65
2022-11-02T20:04:42.619Z,3.40
2022-11-02T20:09:41.301Z,3.00
2022-11-02T20:12:08.713Z,3.33
2022-11-02T20:14:36.728Z,2.78
2022-11-02T20:17:29.710Z,3.13
2022-11-02T20:19:51.717Z,2.90
2022-11-02T20:22:18.775Z,3.05
2022-11-02T20:24:45.927Z,3.33
2022-11-02T20:27:14.364Z,3.28
2022-11-02T20:29:41.595Z,3.78
2022-11-02T20:32:12.944Z,3.45
2022-11-02T20:34:40.407Z,4.70
2022-11-02T20:37:07.598Z,3.72
2022-11-02T20:39:34.618Z,2.97
2022-11-02T20:42:02.179Z,3.47
2022-11-02T20:44:29.416Z,3.33
2022-11-02T20:46:59.748Z,3.78
2022-11-02T20:49:49.472Z,2.92
2022-11-02T20:52:15.872Z,3.15
2022-11-02T20:54:43.316Z,3.05
2022-11-02T20:57:10.534Z,3.80
2022-11-02T20:59:37.983Z,3.08
2022-11-02T21:02:05.340Z,3.40
2022-11-02T21:04:32.684Z,3.83
2022-11-02T21:06:59.800Z,3.22
2022-11-02T21:09:27.006Z,2.70
2022-11-02T21:12:12.995Z,2.60
2022-11-02T21:14:40.074Z,2.60
2022-11-02T21:17:07.592Z,3.65
2022-11-02T21:19:34.904Z,2.42
2022-11-02T21:22:02.374Z,3.13
2022-11-02T21:24:29.642Z,3.45
2022-11-02T21:26:57.190Z,3.25
2022-11-02T21:29:24.402Z,2.90
2022-11-02T21:31:51.556Z,2.90
2022-11-02T21:34:18.879Z,2.25
2022-11-02T21:36:47.435Z,3.60
2022-11-02T21:39:14.820Z,2.40
2022-11-02T21:41:42.255Z,2.88
2022-11-02T21:44:13.442Z,3.28
2022-11-02T21:46:43.416Z,3.38
2022-11-02T21:49:11.293Z,3.15
2022-11-02T21:51:39.860Z,2.90
2022-11-02T21:54:07.137Z,2.80
2022-11-02T21:56:36.252Z,2.35
2022-11-02T21:59:05.573Z,2.92
2022-11-02T22:01:45.698Z,3.25
2022-11-02T22:04:24.984Z,2.72
2022-11-02T22:06:52.699Z,2.50
2022-11-02T22:09:20.377Z,2.67
2022-11-02T22:12:10.412Z,3.15
2022-11-02T22:14:38.804Z,3.05
2022-11-02T22:17:16.378Z,4.03
2022-11-02T22:19:50.603Z,2.72
2022-11-02T22:22:18.049Z,2.85
2022-11-02T22:24:45.347Z,1.90
2022-11-02T22:27:12.959Z,2.58
2022-11-02T22:29:44.832Z,2.67
2022-11-02T22:32:15.852Z,3.45
2022-11-02T22:34:43.954Z,3.25
2022-11-02T22:37:29.912Z,3.60
2022-11-02T22:39:57.400Z,2.95
2022-11-02T22:42:24.606Z,2.78
2022-11-02T22:44:55.157Z,2.83
2022-11-02T22:47:25.741Z,2.33
2022-11-02T22:49:56.797Z,2.95
2022-11-02T22:52:24.079Z,2.75
2022-11-02T22:54:51.522Z,3.17
2022-11-02T22:57:19.055Z,3.75
2022-11-02T22:59:46.091Z,3.75
2022-11-02T23:02:13.183Z,2.05
2022-11-02T23:04:40.274Z,2.95
2022-11-02T23:07:11.100Z,3.35
2022-11-02T23:09:38.230Z,3.20
2022-11-02T23:12:08.058Z,3.08
2022-11-02T23:14:37.496Z,2.65
2022-11-02T23:17:12.174Z,2.67
2022-11-02T23:22:33.507Z,2.65
2022-11-02T23:25:14.569Z,2.92
2022-11-02T23:28:22.147Z,3.30
2022-11-02T23:31:08.052Z,4.43
2022-11-02T23:33:37.549Z,2.58
2022-11-02T23:36:12.951Z,3.58
2022-11-02T23:39:03.557Z,3.42
2022-11-02T23:41:36.526Z,3.60
2022-11-02T23:44:24.505Z,3.20
2022-11-02T23:46:58.984Z,2.75
2022-11-02T23:49:26.299Z,3.67
2022-11-02T23:52:15.920Z,3.55
2022-11-02T23:55:13.907Z,3.20
2022-11-02T23:57:46.180Z,3.08
